createdAt,value
2019-02-19T00:00:30.143Z,20.00
2019-02-19T00:02:58.412Z,21.95
2019-02-19T00:05:26.702Z,24.43
2019-02-19T00:07:54.977Z,21.70
2019-02-19T00:10:23.240Z,24.13
2019-02-19T00:12:51.512Z,21.90
2019-02-19T00:15:19.773Z,23.67
2019-02-19T00:17:48.082Z,16.33
2019-02-19T00:20:16.344Z,19.67
2019-02-19T00:22:44.612Z,23.20
2019-02-19T00:25:12.898Z,17.17
2019-02-19T00:27:41.167Z,20.17
2019-02-19T00:30:09.502Z,23.53
2019-02-19T00:32:37.777Z,22.05
2019-02-19T00:35:06.630Z,20.13
2019-02-19T00:37:34.878Z,19.80
2019-02-19T00:40:03.165Z,27.20
2019-02-19T00:42:31.446Z,19.43
2019-02-19T00:44:59.705Z,21.57
2019-02-19T00:47:28.001Z,24.93
2019-02-19T00:49:56.249Z,25.70
2019-02-19T00:52:24.543Z,21.40
2019-02-19T00:54:52.873Z,20.33
2019-02-19T00:57:21.137Z,22.23
2019-02-19T00:59:49.388Z,22.10
2019-02-19T01:02:17.686Z,22.00
2019-02-19T01:04:45.965Z,20.62
2019-02-19T01:07:14.255Z,22.00
2019-02-19T01:09:42.536Z,20.00
2019-02-19T01:12:10.787Z,21.33
2019-02-19T01:14:39.105Z,17.57
2019-02-19T01:17:07.390Z,18.60
2019-02-19T01:19:35.683Z,20.07
2019-02-19T01:22:03.973Z,18.97
2019-02-19T01:24:32.235Z,16.73
2019-02-19T01:27:00.544Z,18.52
2019-02-19T01:29:28.803Z,19.07
2019-02-19T01:31:57.083Z,20.73
2019-02-19T01:34:25.364Z,19.80
2019-02-19T01:36:53.634Z,19.37
2019-02-19T01:39:21.932Z,22.00
2019-02-19T01:41:50.210Z,18.55
2019-02-19T01:44:18.480Z,22.73
2019-02-19T01:46:47.702Z,21.90
2019-02-19T01:49:15.980Z,20.17
2019-02-19T01:51:44.250Z,26.65
2019-02-19T01:54:12.548Z,22.02
2019-02-19T01:56:40.819Z,20.55
2019-02-19T01:59:09.090Z,25.85
2019-02-19T02:01:37.394Z,22.80
2019-02-19T02:04:05.661Z,22.87
2019-02-19T02:06:33.939Z,24.40
2019-02-19T02:09:02.211Z,22.30
2019-02-19T02:11:30.477Z,18.10
2019-02-19T02:13:58.751Z,19.30
2019-02-19T02:16:27.053Z,18.43
2019-02-19T02:18:55.346Z,21.73
2019-02-19T02:21:23.620Z,18.93
2019-02-19T02:23:51.916Z,21.40
2019-02-19T02:26:20.183Z,22.10
2019-02-19T02:28:48.464Z,22.13
2019-02-19T02:31:16.746Z,22.83
2019-02-19T02:33:45.012Z,24.45
2019-02-19T02:36:13.296Z,20.17
2019-02-19T02:38:41.587Z,22.67
2019-02-19T02:41:09.864Z,19.47
2019-02-19T02:43:38.136Z,23.37
2019-02-19T02:46:06.449Z,21.15
2019-02-19T02:48:34.737Z,22.82
2019-02-19T02:51:03.082Z,23.57
2019-02-19T02:53:31.361Z,26.97
2019-02-19T02:55:59.654Z,22.07
2019-02-19T02:58:27.938Z,21.40
2019-02-19T03:00:56.224Z,22.87
2019-02-19T03:03:24.528Z,21.62
2019-02-19T03:06:01.760Z,25.27
2019-02-19T03:08:30.031Z,22.50
2019-02-19T03:10:58.287Z,21.73
2019-02-19T03:13:26.602Z,23.50
2019-02-19T03:16:02.154Z,23.40
2019-02-19T03:18:24.853Z,26.73
2019-02-19T03:20:53.163Z,21.93
2019-02-19T03:23:21.480Z,25.82
2019-02-19T03:25:49.765Z,25.83
2019-02-19T03:28:18.047Z,24.63
2019-02-19T03:30:46.346Z,24.57
2019-02-19T03:33:14.626Z,23.20
2019-02-19T03:35:42.897Z,27.35
2019-02-19T03:38:11.190Z,30.00
2019-02-19T03:40:39.491Z,28.40
2019-02-19T03:43:07.792Z,30.55
2019-02-19T03:45:36.092Z,29.80
2019-02-19T03:48:04.356Z,29.80
2019-02-19T03:50:32.637Z,34.50
2019-02-19T03:53:00.910Z,32.23
2019-02-19T03:55:29.182Z,28.33
2019-02-19T03:57:57.535Z,32.70
2019-02-19T04:00:25.892Z,32.83
2019-02-19T04:02:54.152Z,32.60
2019-02-19T04:05:22.438Z,33.77
2019-02-19T04:07:50.701Z,29.23
2019-02-19T04:10:18.971Z,32.25
2019-02-19T04:12:47.247Z,32.63
2019-02-19T04:15:15.507Z,34.40
2019-02-19T04:17:43.783Z,40.37
2019-02-19T04:20:12.046Z,35.87
2019-02-19T04:22:40.314Z,38.47
2019-02-19T04:25:08.590Z,37.00
2019-02-19T04:27:36.898Z,36.23
2019-02-19T04:30:06.997Z,42.53
2019-02-19T04:32:35.259Z,37.67
2019-02-19T04:35:04.018Z,41.05
2019-02-19T04:37:32.292Z,40.57
2019-02-19T04:40:00.668Z,41.95
2019-02-19T04:42:28.920Z,50.40
2019-02-19T04:44:57.201Z,41.63
2019-02-19T04:47:25.548Z,38.47
2019-02-19T04:49:53.817Z,43.50
2019-02-19T04:52:22.081Z,42.10
2019-02-19T04:54:50.346Z,41.17
2019-02-19T04:57:18.637Z,45.47
2019-02-19T04:59:46.944Z,49.50
2019-02-19T05:02:15.279Z,45.30
2019-02-19T05:04:43.561Z,45.80
2019-02-19T05:07:11.869Z,41.17
2019-02-19T05:09:40.180Z,40.12
2019-02-19T05:12:08.435Z,41.37
2019-02-19T05:14:36.708Z,36.47
2019-02-19T05:17:05.050Z,41.70
2019-02-19T05:19:33.314Z,42.93
2019-02-19T05:22:01.590Z,38.37
2019-02-19T05:24:29.862Z,42.27
2019-02-19T05:26:58.147Z,43.30
2019-02-19T05:29:26.417Z,41.33
2019-02-19T05:31:54.706Z,43.83
2019-02-19T05:34:22.967Z,44.77
2019-02-19T05:36:51.257Z,43.05
2019-02-19T05:39:19.525Z,50.97
2019-02-19T05:41:47.812Z,49.50
2019-02-19T05:44:16.091Z,49.03
2019-02-19T05:46:49.875Z,52.30
2019-02-19T05:49:14.338Z,49.47
2019-02-19T05:51:42.611Z,53.85
2019-02-19T05:54:10.884Z,57.63
2019-02-19T05:56:39.140Z,49.60
2019-02-19T05:59:07.428Z,51.03
2019-02-19T06:01:35.715Z,54.17
2019-02-19T06:04:03.970Z,53.90
2019-02-19T06:06:32.251Z,59.30
2019-02-19T06:09:00.506Z,55.50
2019-02-19T06:11:28.808Z,49.30
2019-02-19T06:13:57.082Z,51.90
2019-02-19T06:16:25.372Z,47.93
2019-02-19T06:18:53.641Z,50.77
2019-02-19T06:21:21.912Z,49.27
2019-02-19T06:23:50.180Z,46.67
2019-02-19T06:26:18.457Z,44.48
2019-02-19T06:28:46.740Z,45.10
2019-02-19T06:31:15.000Z,49.93
2019-02-19T06:33:44.090Z,48.98
2019-02-19T06:36:12.362Z,46.77
2019-02-19T06:38:40.628Z,46.10
2019-02-19T06:41:08.909Z,50.53
2019-02-19T06:43:37.177Z,40.73
2019-02-19T06:46:05.450Z,47.27
2019-02-19T06:48:33.734Z,41.20
2019-02-19T06:51:02.008Z,56.33
2019-02-19T06:53:30.280Z,45.10
2019-02-19T06:55:58.548Z,44.60
2019-02-19T06:58:26.827Z,43.77
2019-02-19T07:00:55.094Z,44.65
2019-02-19T07:03:25.018Z,50.20
2019-02-19T07:05:53.298Z,41.37
2019-02-19T07:08:21.558Z,51.13
2019-02-19T07:10:49.830Z,37.73
2019-02-19T07:13:18.086Z,42.90
2019-02-19T07:15:46.349Z,39.07
2019-02-19T07:18:15.427Z,46.88
2019-02-19T07:20:43.683Z,45.23
2019-02-19T07:23:11.953Z,42.78
2019-02-19T07:25:40.228Z,49.33
2019-02-19T07:28:08.487Z,44.00
2019-02-19T07:30:36.766Z,41.07
2019-02-19T07:33:05.042Z,54.93
2019-02-19T07:35:33.333Z,43.97
2019-02-19T07:38:01.600Z,35.90
2019-02-19T07:40:29.857Z,43.97
2019-02-19T07:42:58.121Z,44.23
2019-02-19T07:45:26.384Z,42.08
2019-02-19T07:47:54.655Z,42.30
2019-02-19T07:50:22.930Z,37.83
2019-02-19T07:52:51.198Z,37.27
2019-02-19T07:55:19.461Z,39.50
2019-02-19T07:57:47.742Z,40.43
2019-02-19T08:00:16.023Z,32.40
2019-02-19T08:02:44.288Z,35.13
2019-02-19T08:05:12.562Z,37.20
2019-02-19T08:07:40.843Z,37.00
2019-02-19T08:10:10.854Z,36.43
2019-02-19T08:12:39.118Z,39.30
2019-02-19T08:15:11.464Z,34.90
2019-02-19T08:17:39.729Z,37.23
2019-02-19T08:20:15.407Z,38.87
2019-02-19T08:22:39.297Z,31.70
2019-02-19T08:25:07.566Z,33.80
2019-02-19T08:27:35.851Z,32.30
2019-02-19T08:30:05.789Z,34.30
2019-02-19T08:32:34.049Z,29.27
2019-02-19T08:35:02.319Z,28.03
2019-02-19T08:37:30.650Z,28.90
2019-02-19T08:39:58.925Z,30.23
2019-02-19T08:42:27.200Z,28.50
2019-02-19T08:44:55.456Z,31.40
2019-02-19T08:47:23.712Z,25.20
2019-02-19T08:49:51.989Z,25.00
2019-02-19T08:52:20.254Z,27.87
2019-02-19T08:54:48.526Z,25.60
2019-02-19T08:57:16.778Z,28.80
2019-02-19T08:59:45.291Z,26.12
2019-02-19T09:02:13.566Z,24.52
2019-02-19T09:04:41.816Z,30.27
2019-02-19T09:07:10.079Z,24.70
2019-02-19T09:09:38.359Z,26.25
2019-02-19T09:12:06.650Z,23.67
2019-02-19T09:14:34.910Z,25.60
2019-02-19T09:17:03.179Z,23.17
2019-02-19T09:19:31.461Z,25.23
2019-02-19T09:21:59.805Z,27.00
2019-02-19T09:24:28.091Z,23.27
2019-02-19T09:26:56.379Z,21.15
2019-02-19T09:29:24.629Z,18.70
2019-02-19T09:31:52.890Z,26.00
2019-02-19T09:34:22.707Z,26.00
2019-02-19T09:36:50.983Z,22.55
2019-02-19T09:39:19.251Z,20.72
2019-02-19T09:41:47.507Z,23.33
2019-02-19T09:44:15.822Z,22.13
2019-02-19T09:46:44.102Z,22.57
2019-02-19T09:49:12.351Z,19.80
2019-02-19T09:51:40.602Z,23.23
2019-02-19T09:54:08.866Z,23.47
2019-02-19T09:56:37.116Z,22.32
2019-02-19T09:59:05.374Z,20.77
2019-02-19T10:01:33.645Z,19.27
2019-02-19T10:04:01.910Z,25.93
2019-02-19T10:06:30.171Z,18.70
2019-02-19T10:08:58.425Z,18.40
2019-02-19T10:11:26.754Z,17.30
2019-02-19T10:13:55.026Z,23.60
2019-02-19T10:16:23.282Z,16.47
2019-02-19T10:18:51.583Z,19.33
2019-02-19T10:21:19.821Z,17.77
2019-02-19T10:23:48.099Z,18.33
2019-02-19T10:26:16.359Z,16.63
2019-02-19T10:28:44.624Z,17.40
2019-02-19T10:31:12.877Z,18.67
2019-02-19T10:33:41.936Z,24.18
2019-02-19T10:36:10.200Z,15.80
2019-02-19T10:38:38.458Z,20.25
2019-02-19T10:41:06.716Z,20.30
2019-02-19T10:43:34.982Z,16.40
2019-02-19T10:46:03.242Z,17.60
2019-02-19T10:48:31.506Z,15.57
2019-02-19T10:50:59.787Z,17.00
2019-02-19T10:53:28.060Z,14.20
2019-02-19T10:55:56.317Z,16.20
2019-02-19T10:58:24.583Z,15.80
2019-02-19T11:00:52.851Z,20.50
2019-02-19T11:03:21.122Z,17.73
2019-02-19T11:05:49.378Z,17.45
2019-02-19T11:08:17.649Z,15.73
2019-02-19T11:10:45.915Z,14.23
2019-02-19T11:13:14.176Z,19.37
2019-02-19T11:15:42.451Z,19.62
2019-02-19T11:18:10.697Z,18.20
2019-02-19T11:20:38.971Z,19.63
2019-02-19T11:23:07.236Z,17.80
2019-02-19T11:25:35.509Z,15.70
2019-02-19T11:28:03.777Z,15.87
2019-02-19T11:30:32.045Z,17.67
2019-02-19T11:33:00.295Z,20.08
2019-02-19T11:35:28.569Z,18.40
2019-02-19T11:37:56.842Z,16.33
2019-02-19T11:40:25.103Z,12.63
2019-02-19T11:42:53.364Z,14.17
2019-02-19T11:45:23.285Z,19.17
2019-02-19T11:47:51.470Z,19.80
2019-02-19T11:50:19.741Z,16.13
2019-02-19T11:52:48.025Z,14.97
2019-02-19T11:55:20.575Z,16.30
2019-02-19T11:57:48.833Z,15.30
2019-02-19T12:00:18.908Z,14.97
2019-02-19T12:02:49.191Z,12.60
2019-02-19T12:05:17.161Z,17.90
2019-02-19T12:07:45.443Z,15.40
2019-02-19T12:10:13.703Z,14.80
2019-02-19T12:12:41.959Z,17.73
2019-02-19T12:15:13.580Z,13.35
2019-02-19T12:17:41.846Z,14.43
2019-02-19T12:20:13.956Z,14.70
2019-02-19T12:22:42.279Z,15.77
2019-02-19T12:25:11.087Z,13.90
2019-02-19T12:27:39.347Z,13.97
2019-02-19T12:30:16.660Z,23.17
2019-02-19T12:32:44.937Z,16.00
2019-02-19T12:35:13.204Z,20.35
2019-02-19T12:37:41.470Z,16.25
2019-02-19T12:40:11.576Z,19.45
2019-02-19T12:42:39.842Z,24.00
2019-02-19T12:45:10.480Z,15.80
2019-02-19T12:47:38.785Z,17.43
2019-02-19T12:50:12.259Z,17.00
2019-02-19T12:52:40.527Z,18.53
2019-02-19T12:55:09.619Z,17.13
2019-02-19T12:57:37.891Z,16.00
2019-02-19T13:00:09.561Z,18.27
2019-02-19T13:02:37.826Z,17.37
2019-02-19T13:05:08.318Z,15.05
2019-02-19T13:07:36.988Z,15.10
2019-02-19T13:10:07.764Z,15.43
2019-02-19T13:12:36.035Z,22.47
2019-02-19T13:15:06.245Z,22.77
2019-02-19T13:17:34.510Z,17.33
2019-02-19T13:20:02.935Z,14.65
2019-02-19T13:22:31.202Z,14.90
2019-02-19T13:24:59.451Z,14.60
2019-02-19T13:27:27.801Z,18.87
2019-02-19T13:29:56.058Z,14.93
2019-02-19T13:32:24.342Z,17.33
2019-02-19T13:34:52.609Z,18.20
2019-02-19T13:37:20.878Z,19.47
2019-02-19T13:39:49.158Z,25.43
2019-02-19T13:42:17.423Z,25.17
2019-02-19T13:44:45.692Z,21.20
2019-02-19T13:47:13.954Z,21.83
2019-02-19T13:49:42.217Z,21.63
2019-02-19T13:52:12.153Z,24.53
2019-02-19T13:54:41.080Z,22.13
2019-02-19T13:57:09.356Z,20.53
2019-02-19T13:59:37.609Z,20.77
2019-02-19T14:02:06.363Z,19.87
2019-02-19T14:04:34.638Z,22.57
2019-02-19T14:07:02.910Z,23.02
2019-02-19T14:09:31.184Z,26.87
2019-02-19T14:11:59.454Z,25.12
2019-02-19T14:14:41.422Z,20.32
2019-02-19T14:17:09.842Z,22.10
2019-02-19T14:19:39.763Z,18.30
2019-02-19T14:22:25.635Z,21.13
2019-02-19T14:24:55.535Z,20.43
2019-02-19T14:27:27.900Z,20.47
2019-02-19T14:30:03.608Z,19.23
2019-02-19T14:32:49.613Z,21.27
2019-02-19T14:35:35.457Z,21.77
2019-02-19T14:38:05.362Z,18.70
2019-02-19T14:40:50.929Z,20.20
2019-02-19T14:43:32.265Z,22.35
2019-02-19T14:46:05.079Z,21.02
2019-02-19T14:48:35.013Z,18.87
2019-02-19T14:51:04.915Z,24.07
2019-02-19T14:53:40.795Z,18.23
2019-02-19T14:56:25.785Z,19.15
2019-02-19T14:59:07.475Z,20.20
2019-02-19T15:01:43.056Z,16.93
2019-02-19T15:04:12.999Z,20.30
2019-02-19T15:06:48.984Z,20.03
2019-02-19T15:09:21.655Z,18.33
2019-02-19T15:11:51.578Z,15.53
2019-02-19T15:14:24.371Z,16.63
2019-02-19T15:16:56.951Z,15.53
2019-02-19T15:19:29.248Z,19.20
2019-02-19T15:22:07.687Z,18.12
2019-02-19T15:24:55.136Z,16.52
2019-02-19T15:27:27.441Z,18.20
2019-02-19T15:30:05.806Z,16.57
2019-02-19T15:32:50.791Z,14.85
2019-02-19T15:35:36.928Z,17.10
2019-02-19T15:38:22.959Z,11.40
2019-02-19T15:41:01.274Z,7.80
2019-02-19T15:43:31.171Z,7.50
2019-02-19T15:46:03.787Z,12.67
2019-02-19T15:48:33.862Z,9.70
2019-02-19T15:51:06.469Z,10.10
2019-02-19T15:53:48.212Z,12.43
2019-02-19T15:56:18.119Z,10.00
2019-02-19T15:58:50.808Z,14.87
2019-02-19T16:01:23.109Z,8.33
2019-02-19T16:03:52.998Z,14.53
2019-02-19T16:06:25.879Z,9.53
2019-02-19T16:08:55.782Z,14.87
2019-02-19T16:11:31.388Z,14.50
2019-02-19T16:14:01.281Z,18.57
2019-02-19T16:16:47.230Z,14.30
2019-02-19T16:19:28.882Z,11.37
2019-02-19T16:22:07.865Z,15.83
2019-02-19T16:24:53.778Z,11.10
2019-02-19T16:27:29.717Z,16.02
2019-02-19T16:30:17.708Z,25.35
2019-02-19T16:33:03.767Z,22.00
2019-02-19T16:35:33.663Z,16.10
2019-02-19T16:38:03.581Z,16.80
2019-02-19T16:40:36.117Z,22.13
2019-02-19T16:43:21.692Z,18.33
2019-02-19T16:45:54.515Z,29.17
2019-02-19T16:48:24.434Z,23.23
2019-02-19T16:50:54.333Z,18.03
2019-02-19T16:53:24.248Z,21.10
2019-02-19T16:56:10.075Z,15.00
2019-02-19T16:58:45.999Z,16.33
2019-02-19T17:01:21.625Z,14.30
2019-02-19T17:03:54.476Z,13.72
2019-02-19T17:06:24.469Z,23.27
2019-02-19T17:09:10.334Z,17.20
2019-02-19T17:11:49.297Z,13.35
2019-02-19T17:14:19.214Z,12.47
2019-02-19T17:16:51.757Z,16.77
2019-02-19T17:19:30.594Z,17.23
2019-02-19T17:22:03.212Z,12.23
2019-02-19T17:24:42.063Z,15.70
2019-02-19T17:27:20.779Z,14.83
2019-02-19T17:29:50.955Z,13.33
2019-02-19T17:32:36.805Z,13.50
2019-02-19T17:35:08.152Z,9.53
2019-02-19T17:37:40.735Z,16.55
2019-02-19T17:40:10.702Z,15.80
2019-02-19T17:42:40.612Z,14.97
2019-02-19T17:45:13.246Z,17.57
2019-02-19T17:47:51.886Z,15.10
2019-02-19T17:50:38.774Z,18.90
2019-02-19T17:53:24.780Z,16.30
2019-02-19T17:55:54.691Z,15.10
2019-02-19T17:58:33.277Z,15.95
2019-02-19T18:01:20.956Z,18.03
2019-02-19T18:03:50.871Z,15.70
2019-02-19T18:06:23.465Z,15.23
2019-02-19T18:09:10.914Z,12.73
2019-02-19T18:11:52.764Z,12.13
2019-02-19T18:14:28.573Z,12.33
2019-02-19T18:17:13.541Z,15.53
2019-02-19T18:19:41.806Z,14.77
2019-02-19T18:22:10.061Z,8.55
2019-02-19T18:24:38.350Z,14.50
2019-02-19T18:27:06.613Z,18.57
2019-02-19T18:29:34.881Z,14.63
2019-02-19T18:32:03.150Z,13.53
2019-02-19T18:34:31.424Z,10.40
2019-02-19T18:36:59.673Z,18.67
2019-02-19T18:39:27.952Z,17.33
2019-02-19T18:41:56.214Z,17.05
2019-02-19T18:44:24.467Z,11.33
2019-02-19T18:46:52.743Z,8.97
2019-02-19T18:49:21.002Z,22.07
2019-02-19T18:51:49.264Z,24.27
2019-02-19T18:54:17.543Z,16.33
2019-02-19T18:56:45.816Z,10.27
2019-02-19T18:59:14.099Z,18.45
2019-02-19T19:01:42.402Z,13.13
2019-02-19T19:04:10.673Z,15.83
2019-02-19T19:06:38.950Z,14.10
2019-02-19T19:09:07.294Z,21.73
2019-02-19T19:11:35.572Z,18.60
2019-02-19T19:14:03.836Z,24.33
2019-02-19T19:16:32.112Z,12.00
2019-02-19T19:19:00.382Z,25.12
2019-02-19T19:21:28.638Z,15.38
2019-02-19T19:23:57.010Z,16.30
2019-02-19T19:26:25.288Z,21.07
2019-02-19T19:28:53.568Z,19.07
2019-02-19T19:31:21.841Z,23.45
2019-02-19T19:33:50.106Z,20.25
2019-02-19T19:36:18.364Z,19.93
2019-02-19T19:38:46.643Z,17.60
2019-02-19T19:41:14.904Z,19.10
2019-02-19T19:43:43.528Z,12.23
2019-02-19T19:46:11.782Z,12.88
2019-02-19T19:48:40.074Z,23.43
2019-02-19T19:51:16.915Z,15.00
2019-02-19T19:53:38.861Z,13.80
2019-02-19T19:56:07.136Z,18.40
2019-02-19T19:58:35.403Z,17.98
2019-02-19T20:01:03.685Z,17.70
2019-02-19T20:03:31.954Z,14.00
2019-02-19T20:06:00.233Z,19.90
2019-02-19T20:08:28.498Z,16.83
2019-02-19T20:10:56.767Z,20.83
2019-02-19T20:13:25.041Z,19.37
2019-02-19T20:15:53.308Z,18.93
2019-02-19T20:18:21.598Z,22.80
2019-02-19T20:20:49.941Z,23.30
2019-02-19T20:23:18.233Z,13.53
2019-02-19T20:25:46.526Z,18.30
2019-02-19T20:28:14.794Z,19.73
2019-02-19T20:30:43.045Z,19.87
2019-02-19T20:33:11.313Z,16.03
2019-02-19T20:35:39.585Z,15.73
2019-02-19T20:38:07.849Z,26.67
2019-02-19T20:40:36.102Z,22.30
2019-02-19T20:43:04.375Z,14.87
2019-02-19T20:45:32.652Z,19.80
2019-02-19T20:48:00.993Z,13.38
2019-02-19T20:50:29.256Z,12.83
2019-02-19T20:52:57.511Z,16.10
2019-02-19T20:55:25.825Z,17.50
2019-02-19T20:57:54.109Z,18.20
2019-02-19T21:00:22.387Z,12.90
2019-02-19T21:02:50.667Z,13.67
2019-02-19T21:05:18.928Z,25.30
2019-02-19T21:07:47.191Z,22.37
2019-02-19T21:10:19.523Z,17.73
2019-02-19T21:12:47.830Z,27.05
2019-02-19T21:15:16.092Z,14.87
2019-02-19T21:17:44.342Z,14.58
2019-02-19T21:20:12.892Z,24.47
2019-02-19T21:22:41.164Z,14.43
2019-02-19T21:25:10.371Z,16.33
2019-02-19T21:27:38.629Z,16.87
2019-02-19T21:30:12.302Z,20.03
2019-02-19T21:32:40.567Z,17.03
2019-02-19T21:35:09.477Z,18.30
2019-02-19T21:37:37.813Z,12.17
2019-02-19T21:40:11.063Z,15.50
2019-02-19T21:42:39.338Z,14.13
2019-02-19T21:45:13.621Z,21.07
2019-02-19T21:47:41.907Z,19.00
2019-02-19T21:50:11.397Z,13.43
2019-02-19T21:52:39.835Z,17.33
2019-02-19T21:55:12.092Z,13.93
2019-02-19T21:57:40.361Z,12.50
2019-02-19T22:00:11.006Z,17.03
2019-02-19T22:02:39.290Z,8.67
2019-02-19T22:05:07.722Z,20.23
2019-02-19T22:07:35.980Z,17.23
2019-02-19T22:10:05.896Z,13.08
2019-02-19T22:12:34.167Z,22.40
2019-02-19T22:15:02.425Z,13.97
2019-02-19T22:17:30.691Z,21.77
2019-02-19T22:20:03.142Z,15.90
2019-02-19T22:22:29.222Z,19.20
2019-02-19T22:24:57.470Z,19.17
2019-02-19T22:27:25.736Z,17.77
2019-02-19T22:29:53.989Z,15.70
2019-02-19T22:32:22.253Z,19.97
2019-02-19T22:34:50.534Z,17.13
2019-02-19T22:37:18.928Z,19.25
2019-02-19T22:39:47.441Z,23.02
2019-02-19T22:42:15.741Z,21.00
2019-02-19T22:44:43.991Z,12.60
2019-02-19T22:47:12.278Z,19.30
2019-02-19T22:49:40.570Z,19.75
2019-02-19T22:52:12.495Z,23.60
2019-02-19T22:54:40.513Z,16.33
2019-02-19T22:57:08.776Z,16.43
2019-02-19T22:59:37.050Z,22.33
2019-02-19T23:02:07.031Z,21.97
2019-02-19T23:04:35.312Z,20.27
2019-02-19T23:07:03.574Z,30.50
2019-02-19T23:09:31.854Z,16.70
2019-02-19T23:12:03.028Z,24.97
2019-02-19T23:14:31.295Z,16.23
2019-02-19T23:16:59.574Z,20.03
2019-02-19T23:19:27.845Z,23.22
2019-02-19T23:21:56.129Z,17.10
2019-02-19T23:24:24.370Z,16.70
2019-02-19T23:26:52.738Z,22.37
2019-02-19T23:29:21.000Z,18.43
2019-02-19T23:31:49.274Z,32.97
2019-02-19T23:34:17.558Z,19.67
2019-02-19T23:36:47.461Z,23.70
2019-02-19T23:39:15.751Z,22.87
2019-02-19T23:41:44.026Z,23.05
2019-02-19T23:44:12.320Z,23.67
2019-02-19T23:46:40.581Z,19.30
2019-02-19T23:49:08.891Z,21.20
2019-02-19T23:51:37.105Z,21.37
2019-02-19T23:54:05.379Z,23.53
2019-02-19T23:56:33.658Z,19.70
2019-02-19T23:59:01.926Z,22.20
